sensor_id;sensor_type;location;lat;lon;timestamp;P1;durP1;ratioP1;P2;durP2;ratioP2
46643;SDS011;32371;51.032;5.816;2022-07-30T00:01:01;4.85;;;2.05;;
46643;SDS011;32371;51.032;5.816;2022-07-30T00:03:27;7.32;;;1.88;;
46643;SDS011;32371;51.032;5.816;2022-07-30T00:05:53;4.68;;;2.08;;
46643;SDS011;32371;51.032;5.816;2022-07-30T00:08:19;3.33;;;1.50;;
46643;SDS011;32371;51.032;5.816;2022-07-30T00:10:45;4.68;;;1.70;;
46643;SDS011;32371;51.032;5.816;2022-07-30T00:13:10;4.25;;;1.58;;
46643;SDS011;32371;51.032;5.816;2022-07-30T00:15:35;5.05;;;1.90;;
46643;SDS011;32371;51.032;5.816;2022-07-30T00:18:01;5.43;;;2.03;;
46643;SDS011;32371;51.032;5.816;2022-07-30T00:20:27;2.65;;;2.10;;
46643;SDS011;32371;51.032;5.816;2022-07-30T00:22:52;7.47;;;1.73;;
46643;SDS011;32371;51.032;5.816;2022-07-30T00:25:18;2.83;;;1.90;;
46643;SDS011;32371;51.032;5.816;2022-07-30T00:27:43;5.72;;;1.70;;
46643;SDS011;32371;51.032;5.816;2022-07-30T00:30:09;11.70;;;1.95;;
46643;SDS011;32371;51.032;5.816;2022-07-30T00:32:35;9.18;;;2.08;;
46643;SDS011;32371;51.032;5.816;2022-07-30T00:35:01;6.07;;;1.92;;
46643;SDS011;32371;51.032;5.816;2022-07-30T00:37:26;4.00;;;1.45;;
46643;SDS011;32371;51.032;5.816;2022-07-30T00:39:52;2.80;;;1.90;;
46643;SDS011;32371;51.032;5.816;2022-07-30T00:42:17;6.57;;;2.20;;
46643;SDS011;32371;51.032;5.816;2022-07-30T00:44:49;2.30;;;1.77;;
46643;SDS011;32371;51.032;5.816;2022-07-30T00:47:17;4.43;;;1.80;;
46643;SDS011;32371;51.032;5.816;2022-07-30T00:49:43;8.57;;;1.73;;
46643;SDS011;32371;51.032;5.816;2022-07-30T00:52:08;6.55;;;2.40;;
46643;SDS011;32371;51.032;5.816;2022-07-30T00:54:34;3.38;;;2.03;;
46643;SDS011;32371;51.032;5.816;2022-07-30T00:57:00;4.00;;;1.50;;
46643;SDS011;32371;51.032;5.816;2022-07-30T00:59:25;2.55;;;1.50;;
46643;SDS011;32371;51.032;5.816;2022-07-30T01:01:52;6.18;;;2.63;;
46643;SDS011;32371;51.032;5.816;2022-07-30T01:04:18;6.07;;;1.60;;
46643;SDS011;32371;51.032;5.816;2022-07-30T01:06:43;3.13;;;1.90;;
46643;SDS011;32371;51.032;5.816;2022-07-30T01:09:09;5.55;;;1.90;;
46643;SDS011;32371;51.032;5.816;2022-07-30T01:11:36;2.97;;;2.40;;
46643;SDS011;32371;51.032;5.816;2022-07-30T01:14:03;4.15;;;1.70;;
46643;SDS011;32371;51.032;5.816;2022-07-30T01:16:30;2.53;;;1.42;;
46643;SDS011;32371;51.032;5.816;2022-07-30T01:18:56;7.22;;;2.45;;
46643;SDS011;32371;51.032;5.816;2022-07-30T01:21:40;5.93;;;2.45;;
46643;SDS011;32371;51.032;5.816;2022-07-30T01:26:47;8.15;;;2.15;;
46643;SDS011;32371;51.032;5.816;2022-07-30T01:29:13;7.97;;;2.35;;
46643;SDS011;32371;51.032;5.816;2022-07-30T01:31:39;2.95;;;1.98;;
46643;SDS011;32371;51.032;5.816;2022-07-30T01:34:05;4.85;;;2.17;;
46643;SDS011;32371;51.032;5.816;2022-07-30T01:36:31;6.07;;;2.17;;
46643;SDS011;32371;51.032;5.816;2022-07-30T01:38:58;3.10;;;2.28;;
46643;SDS011;32371;51.032;5.816;2022-07-30T01:41:25;3.80;;;1.73;;
46643;SDS011;32371;51.032;5.816;2022-07-30T01:43:50;3.97;;;2.53;;
46643;SDS011;32371;51.032;5.816;2022-07-30T01:46:16;2.50;;;2.10;;
46643;SDS011;32371;51.032;5.816;2022-07-30T01:48:42;3.05;;;2.13;;
46643;SDS011;32371;51.032;5.816;2022-07-30T01:51:10;4.03;;;2.67;;
46643;SDS011;32371;51.032;5.816;2022-07-30T01:53:37;7.13;;;2.75;;
46643;SDS011;32371;51.032;5.816;2022-07-30T01:56:04;7.30;;;2.33;;
46643;SDS011;32371;51.032;5.816;2022-07-30T01:58:33;5.05;;;2.35;;
46643;SDS011;32371;51.032;5.816;2022-07-30T02:01:00;10.88;;;2.67;;
46643;SDS011;32371;51.032;5.816;2022-07-30T02:03:25;7.15;;;2.35;;
46643;SDS011;32371;51.032;5.816;2022-07-30T02:05:53;5.45;;;2.67;;
46643;SDS011;32371;51.032;5.816;2022-07-30T02:08:33;3.58;;;2.60;;
46643;SDS011;32371;51.032;5.816;2022-07-30T02:11:03;3.35;;;2.15;;
46643;SDS011;32371;51.032;5.816;2022-07-30T02:13:31;2.60;;;2.10;;
46643;SDS011;32371;51.032;5.816;2022-07-30T02:15:59;4.95;;;2.47;;
46643;SDS011;32371;51.032;5.816;2022-07-30T02:18:39;3.67;;;2.17;;
46643;SDS011;32371;51.032;5.816;2022-07-30T02:21:07;5.80;;;2.53;;
46643;SDS011;32371;51.032;5.816;2022-07-30T02:23:34;10.52;;;2.75;;
46643;SDS011;32371;51.032;5.816;2022-07-30T02:26:02;7.57;;;3.38;;
46643;SDS011;32371;51.032;5.816;2022-07-30T02:28:29;5.40;;;2.15;;
46643;SDS011;32371;51.032;5.816;2022-07-30T02:30:57;4.88;;;2.97;;
46643;SDS011;32371;51.032;5.816;2022-07-30T02:33:25;7.63;;;2.70;;
46643;SDS011;32371;51.032;5.816;2022-07-30T02:35:53;3.85;;;3.00;;
46643;SDS011;32371;51.032;5.816;2022-07-30T02:38:19;5.38;;;3.00;;
46643;SDS011;32371;51.032;5.816;2022-07-30T02:40:45;3.72;;;2.50;;
46643;SDS011;32371;51.032;5.816;2022-07-30T02:43:15;6.72;;;2.63;;
46643;SDS011;32371;51.032;5.816;2022-07-30T02:45:42;8.23;;;2.90;;
46643;SDS011;32371;51.032;5.816;2022-07-30T02:48:10;7.50;;;3.00;;
46643;SDS011;32371;51.032;5.816;2022-07-30T02:50:36;7.93;;;3.63;;
46643;SDS011;32371;51.032;5.816;2022-07-30T02:53:04;5.03;;;2.90;;
46643;SDS011;32371;51.032;5.816;2022-07-30T02:55:31;5.93;;;2.97;;
46643;SDS011;32371;51.032;5.816;2022-07-30T02:57:59;6.00;;;3.08;;
46643;SDS011;32371;51.032;5.816;2022-07-30T03:00:25;5.55;;;2.90;;
46643;SDS011;32371;51.032;5.816;2022-07-30T03:02:51;6.22;;;3.22;;
46643;SDS011;32371;51.032;5.816;2022-07-30T03:05:18;7.00;;;3.47;;
46643;SDS011;32371;51.032;5.816;2022-07-30T03:07:43;6.90;;;3.45;;
46643;SDS011;32371;51.032;5.816;2022-07-30T03:10:11;9.70;;;3.53;;
46643;SDS011;32371;51.032;5.816;2022-07-30T03:12:37;5.45;;;3.08;;
46643;SDS011;32371;51.032;5.816;2022-07-30T03:15:03;8.15;;;4.25;;
46643;SDS011;32371;51.032;5.816;2022-07-30T03:17:30;6.55;;;3.55;;
46643;SDS011;32371;51.032;5.816;2022-07-30T03:19:59;7.40;;;3.83;;
46643;SDS011;32371;51.032;5.816;2022-07-30T03:22:25;8.85;;;3.50;;
46643;SDS011;32371;51.032;5.816;2022-07-30T03:24:51;7.85;;;4.18;;
46643;SDS011;32371;51.032;5.816;2022-07-30T03:27:18;6.57;;;3.78;;
46643;SDS011;32371;51.032;5.816;2022-07-30T03:29:44;10.05;;;4.25;;
46643;SDS011;32371;51.032;5.816;2022-07-30T03:32:11;10.18;;;3.72;;
46643;SDS011;32371;51.032;5.816;2022-07-30T03:34:36;8.65;;;4.22;;
46643;SDS011;32371;51.032;5.816;2022-07-30T03:37:02;8.70;;;4.13;;
46643;SDS011;32371;51.032;5.816;2022-07-30T03:39:31;9.65;;;3.72;;
46643;SDS011;32371;51.032;5.816;2022-07-30T03:41:57;6.22;;;3.92;;
46643;SDS011;32371;51.032;5.816;2022-07-30T03:44:23;10.20;;;4.15;;
46643;SDS011;32371;51.032;5.816;2022-07-30T03:46:48;9.77;;;4.25;;
46643;SDS011;32371;51.032;5.816;2022-07-30T03:49:15;9.65;;;4.03;;
46643;SDS011;32371;51.032;5.816;2022-07-30T03:51:41;5.90;;;4.35;;
46643;SDS011;32371;51.032;5.816;2022-07-30T03:54:06;8.60;;;4.22;;
46643;SDS011;32371;51.032;5.816;2022-07-30T03:56:33;9.85;;;4.50;;
46643;SDS011;32371;51.032;5.816;2022-07-30T03:58:59;13.52;;;4.78;;
46643;SDS011;32371;51.032;5.816;2022-07-30T04:01:25;7.53;;;3.90;;
46643;SDS011;32371;51.032;5.816;2022-07-30T04:03:51;11.23;;;3.88;;
46643;SDS011;32371;51.032;5.816;2022-07-30T04:06:16;6.75;;;4.78;;
46643;SDS011;32371;51.032;5.816;2022-07-30T04:08:42;5.43;;;4.43;;
46643;SDS011;32371;51.032;5.816;2022-07-30T04:11:07;6.75;;;3.83;;
46643;SDS011;32371;51.032;5.816;2022-07-30T04:13:32;10.32;;;4.50;;
46643;SDS011;32371;51.032;5.816;2022-07-30T04:18:30;9.80;;;4.93;;
46643;SDS011;32371;51.032;5.816;2022-07-30T04:21:00;10.45;;;4.90;;
46643;SDS011;32371;51.032;5.816;2022-07-30T04:23:28;7.25;;;4.75;;
46643;SDS011;32371;51.032;5.816;2022-07-30T04:25:53;9.57;;;4.57;;
46643;SDS011;32371;51.032;5.816;2022-07-30T04:28:19;10.43;;;5.22;;
46643;SDS011;32371;51.032;5.816;2022-07-30T04:30:45;8.77;;;4.85;;
46643;SDS011;32371;51.032;5.816;2022-07-30T04:33:10;8.25;;;5.03;;
46643;SDS011;32371;51.032;5.816;2022-07-30T04:38:37;13.00;;;5.30;;
46643;SDS011;32371;51.032;5.816;2022-07-30T04:41:03;11.60;;;5.53;;
46643;SDS011;32371;51.032;5.816;2022-07-30T04:43:28;9.60;;;4.43;;
46643;SDS011;32371;51.032;5.816;2022-07-30T04:45:54;10.00;;;4.72;;
46643;SDS011;32371;51.032;5.816;2022-07-30T04:48:19;9.40;;;5.60;;
46643;SDS011;32371;51.032;5.816;2022-07-30T04:50:45;12.93;;;5.47;;
46643;SDS011;32371;51.032;5.816;2022-07-30T04:53:13;12.32;;;5.88;;
46643;SDS011;32371;51.032;5.816;2022-07-30T04:55:40;12.32;;;5.03;;
46643;SDS011;32371;51.032;5.816;2022-07-30T04:58:06;9.50;;;4.82;;
46643;SDS011;32371;51.032;5.816;2022-07-30T05:00:33;15.30;;;6.20;;
46643;SDS011;32371;51.032;5.816;2022-07-30T05:03:00;10.45;;;6.18;;
46643;SDS011;32371;51.032;5.816;2022-07-30T05:05:26;7.90;;;5.55;;
46643;SDS011;32371;51.032;5.816;2022-07-30T05:07:56;16.05;;;6.78;;
46643;SDS011;32371;51.032;5.816;2022-07-30T05:10:21;12.55;;;6.75;;
46643;SDS011;32371;51.032;5.816;2022-07-30T05:12:47;13.75;;;6.32;;
46643;SDS011;32371;51.032;5.816;2022-07-30T05:15:12;15.30;;;7.25;;
46643;SDS011;32371;51.032;5.816;2022-07-30T05:17:38;15.98;;;8.27;;
46643;SDS011;32371;51.032;5.816;2022-07-30T05:20:03;19.27;;;8.30;;
46643;SDS011;32371;51.032;5.816;2022-07-30T05:22:29;17.08;;;8.40;;
46643;SDS011;32371;51.032;5.816;2022-07-30T05:24:55;23.30;;;10.32;;
46643;SDS011;32371;51.032;5.816;2022-07-30T05:27:21;25.58;;;10.85;;
46643;SDS011;32371;51.032;5.816;2022-07-30T05:29:47;20.15;;;9.85;;
46643;SDS011;32371;51.032;5.816;2022-07-30T05:32:12;22.98;;;10.60;;
46643;SDS011;32371;51.032;5.816;2022-07-30T05:34:37;23.75;;;10.43;;
46643;SDS011;32371;51.032;5.816;2022-07-30T05:37:03;25.80;;;10.68;;
46643;SDS011;32371;51.032;5.816;2022-07-30T05:39:28;18.58;;;9.23;;
46643;SDS011;32371;51.032;5.816;2022-07-30T05:41:54;20.83;;;10.48;;
46643;SDS011;32371;51.032;5.816;2022-07-30T05:44:19;24.58;;;9.48;;
46643;SDS011;32371;51.032;5.816;2022-07-30T05:46:45;21.73;;;9.80;;
46643;SDS011;32371;51.032;5.816;2022-07-30T05:49:10;25.60;;;10.13;;
46643;SDS011;32371;51.032;5.816;2022-07-30T05:51:36;19.67;;;9.70;;
46643;SDS011;32371;51.032;5.816;2022-07-30T05:54:03;24.00;;;9.70;;
46643;SDS011;32371;51.032;5.816;2022-07-30T05:56:33;21.75;;;9.57;;
46643;SDS011;32371;51.032;5.816;2022-07-30T05:58:59;25.17;;;10.27;;
46643;SDS011;32371;51.032;5.816;2022-07-30T06:01:25;20.92;;;10.05;;
46643;SDS011;32371;51.032;5.816;2022-07-30T06:03:50;22.98;;;10.00;;
46643;SDS011;32371;51.032;5.816;2022-07-30T06:06:16;25.30;;;10.68;;
46643;SDS011;32371;51.032;5.816;2022-07-30T06:08:41;20.48;;;10.65;;
46643;SDS011;32371;51.032;5.816;2022-07-30T06:11:08;20.80;;;11.02;;
46643;SDS011;32371;51.032;5.816;2022-07-30T06:13:33;23.65;;;10.75;;
46643;SDS011;32371;51.032;5.816;2022-07-30T06:15:59;20.65;;;10.27;;
46643;SDS011;32371;51.032;5.816;2022-07-30T06:18:24;23.63;;;10.63;;
46643;SDS011;32371;51.032;5.816;2022-07-30T06:20:50;25.40;;;11.75;;
46643;SDS011;32371;51.032;5.816;2022-07-30T06:23:18;22.38;;;12.18;;
46643;SDS011;32371;51.032;5.816;2022-07-30T06:25:44;29.75;;;11.82;;
46643;SDS011;32371;51.032;5.816;2022-07-30T06:28:10;26.77;;;10.32;;
46643;SDS011;32371;51.032;5.816;2022-07-30T06:30:36;26.27;;;10.38;;
46643;SDS011;32371;51.032;5.816;2022-07-30T06:33:01;21.48;;;10.63;;
46643;SDS011;32371;51.032;5.816;2022-07-30T06:35:26;24.13;;;10.65;;
46643;SDS011;32371;51.032;5.816;2022-07-30T06:37:52;23.77;;;10.15;;
46643;SDS011;32371;51.032;5.816;2022-07-30T06:40:17;29.02;;;10.32;;
46643;SDS011;32371;51.032;5.816;2022-07-30T06:42:42;23.02;;;10.38;;
46643;SDS011;32371;51.032;5.816;2022-07-30T06:45:08;23.65;;;11.95;;
46643;SDS011;32371;51.032;5.816;2022-07-30T06:47:34;29.15;;;10.93;;
46643;SDS011;32371;51.032;5.816;2022-07-30T06:50:00;33.72;;;12.13;;
46643;SDS011;32371;51.032;5.816;2022-07-30T06:52:25;23.75;;;9.65;;
46643;SDS011;32371;51.032;5.816;2022-07-30T06:54:51;27.90;;;10.43;;
46643;SDS011;32371;51.032;5.816;2022-07-30T06:57:16;25.25;;;10.35;;
46643;SDS011;32371;51.032;5.816;2022-07-30T06:59:42;21.77;;;10.82;;
46643;SDS011;32371;51.032;5.816;2022-07-30T07:02:07;18.95;;;10.05;;
46643;SDS011;32371;51.032;5.816;2022-07-30T07:04:33;21.95;;;9.88;;
46643;SDS011;32371;51.032;5.816;2022-07-30T07:06:58;25.77;;;10.68;;
46643;SDS011;32371;51.032;5.816;2022-07-30T07:09:24;15.88;;;9.63;;
46643;SDS011;32371;51.032;5.816;2022-07-30T07:11:49;14.50;;;8.68;;
46643;SDS011;32371;51.032;5.816;2022-07-30T07:14:15;20.77;;;8.30;;
46643;SDS011;32371;51.032;5.816;2022-07-30T07:16:41;18.42;;;8.38;;
46643;SDS011;32371;51.032;5.816;2022-07-30T07:19:07;18.48;;;7.80;;
46643;SDS011;32371;51.032;5.816;2022-07-30T07:21:32;15.27;;;8.55;;
46643;SDS011;32371;51.032;5.816;2022-07-30T07:23:57;16.75;;;8.25;;
46643;SDS011;32371;51.032;5.816;2022-07-30T07:26:24;16.75;;;7.85;;
46643;SDS011;32371;51.032;5.816;2022-07-30T07:28:50;19.35;;;8.15;;
46643;SDS011;32371;51.032;5.816;2022-07-30T07:31:15;12.48;;;7.57;;
46643;SDS011;32371;51.032;5.816;2022-07-30T07:33:41;10.07;;;5.78;;
46643;SDS011;32371;51.032;5.816;2022-07-30T07:36:06;10.02;;;6.07;;
46643;SDS011;32371;51.032;5.816;2022-07-30T07:38:32;16.17;;;6.13;;
46643;SDS011;32371;51.032;5.816;2022-07-30T07:40:58;17.90;;;6.72;;
46643;SDS011;32371;51.032;5.816;2022-07-30T07:43:23;7.45;;;4.72;;
46643;SDS011;32371;51.032;5.816;2022-07-30T07:45:49;13.40;;;4.93;;
46643;SDS011;32371;51.032;5.816;2022-07-30T07:48:15;13.68;;;5.15;;
46643;SDS011;32371;51.032;5.816;2022-07-30T07:50:42;7.68;;;4.10;;
46643;SDS011;32371;51.032;5.816;2022-07-30T07:53:07;10.50;;;5.13;;
46643;SDS011;32371;51.032;5.816;2022-07-30T07:55:32;12.23;;;4.95;;
46643;SDS011;32371;51.032;5.816;2022-07-30T07:57:58;9.63;;;3.95;;
46643;SDS011;32371;51.032;5.816;2022-07-30T08:00:23;9.35;;;3.47;;
46643;SDS011;32371;51.032;5.816;2022-07-30T08:02:49;15.00;;;4.78;;
46643;SDS011;32371;51.032;5.816;2022-07-30T08:05:15;12.95;;;4.80;;
46643;SDS011;32371;51.032;5.816;2022-07-30T08:07:41;8.60;;;4.43;;
46643;SDS011;32371;51.032;5.816;2022-07-30T08:10:07;11.00;;;4.40;;
46643;SDS011;32371;51.032;5.816;2022-07-30T08:12:33;8.88;;;4.15;;
46643;SDS011;32371;51.032;5.816;2022-07-30T08:14:58;8.82;;;4.88;;
46643;SDS011;32371;51.032;5.816;2022-07-30T08:17:24;11.73;;;4.38;;
46643;SDS011;32371;51.032;5.816;2022-07-30T08:19:49;10.35;;;4.82;;
46643;SDS011;32371;51.032;5.816;2022-07-30T08:22:15;8.30;;;4.50;;
46643;SDS011;32371;51.032;5.816;2022-07-30T08:24:40;9.23;;;4.18;;
46643;SDS011;32371;51.032;5.816;2022-07-30T08:27:06;9.57;;;4.57;;
46643;SDS011;32371;51.032;5.816;2022-07-30T08:29:31;8.48;;;4.20;;
46643;SDS011;32371;51.032;5.816;2022-07-30T08:31:57;6.82;;;3.85;;
46643;SDS011;32371;51.032;5.816;2022-07-30T08:34:22;5.95;;;3.97;;
46643;SDS011;32371;51.032;5.816;2022-07-30T08:36:48;9.48;;;4.30;;
46643;SDS011;32371;51.032;5.816;2022-07-30T08:39:13;6.00;;;4.10;;
46643;SDS011;32371;51.032;5.816;2022-07-30T08:41:39;6.10;;;3.25;;
46643;SDS011;32371;51.032;5.816;2022-07-30T08:44:06;9.05;;;5.05;;
46643;SDS011;32371;51.032;5.816;2022-07-30T08:46:34;7.85;;;4.25;;
46643;SDS011;32371;51.032;5.816;2022-07-30T08:49:00;11.70;;;4.22;;
46643;SDS011;32371;51.032;5.816;2022-07-30T08:51:26;9.00;;;2.97;;
46643;SDS011;32371;51.032;5.816;2022-07-30T08:53:52;5.65;;;3.17;;
46643;SDS011;32371;51.032;5.816;2022-07-30T08:56:17;7.78;;;3.42;;
46643;SDS011;32371;51.032;5.816;2022-07-30T08:58:43;7.70;;;3.20;;
46643;SDS011;32371;51.032;5.816;2022-07-30T09:01:09;10.07;;;3.72;;
46643;SDS011;32371;51.032;5.816;2022-07-30T09:03:36;9.02;;;4.07;;
46643;SDS011;32371;51.032;5.816;2022-07-30T09:06:03;9.05;;;4.28;;
46643;SDS011;32371;51.032;5.816;2022-07-30T09:08:29;9.70;;;4.25;;
46643;SDS011;32371;51.032;5.816;2022-07-30T09:10:55;6.07;;;3.65;;
46643;SDS011;32371;51.032;5.816;2022-07-30T09:15:55;10.25;;;4.43;;
46643;SDS011;32371;51.032;5.816;2022-07-30T09:20:57;5.68;;;2.92;;
46643;SDS011;32371;51.032;5.816;2022-07-30T09:23:23;6.35;;;3.05;;
46643;SDS011;32371;51.032;5.816;2022-07-30T09:25:48;4.47;;;2.88;;
46643;SDS011;32371;51.032;5.816;2022-07-30T09:28:14;7.55;;;3.33;;
46643;SDS011;32371;51.032;5.816;2022-07-30T09:30:47;11.25;;;4.10;;
46643;SDS011;32371;51.032;5.816;2022-07-30T09:33:14;8.70;;;3.88;;
46643;SDS011;32371;51.032;5.816;2022-07-30T09:35:41;6.18;;;2.92;;
46643;SDS011;32371;51.032;5.816;2022-07-30T09:38:07;7.22;;;3.20;;
46643;SDS011;32371;51.032;5.816;2022-07-30T09:40:33;4.65;;;3.17;;
46643;SDS011;32371;51.032;5.816;2022-07-30T09:45:30;5.93;;;3.40;;
46643;SDS011;32371;51.032;5.816;2022-07-30T09:47:55;5.15;;;3.00;;
46643;SDS011;32371;51.032;5.816;2022-07-30T09:50:21;7.15;;;3.42;;
46643;SDS011;32371;51.032;5.816;2022-07-30T09:52:48;11.40;;;3.55;;
46643;SDS011;32371;51.032;5.816;2022-07-30T09:55:14;5.53;;;3.40;;
46643;SDS011;32371;51.032;5.816;2022-07-30T09:57:55;4.43;;;3.20;;
46643;SDS011;32371;51.032;5.816;2022-07-30T10:00:22;4.60;;;2.92;;
46643;SDS011;32371;51.032;5.816;2022-07-30T10:02:49;4.15;;;3.13;;
46643;SDS011;32371;51.032;5.816;2022-07-30T10:05:16;5.90;;;3.10;;
46643;SDS011;32371;51.032;5.816;2022-07-30T10:10:27;7.25;;;6.75;;
46643;SDS011;32371;51.032;5.816;2022-07-30T10:12:57;6.50;;;1.95;;
46643;SDS011;32371;51.032;5.816;2022-07-30T10:15:28;2.05;;;1.40;;
46643;SDS011;32371;51.032;5.816;2022-07-30T10:17:55;3.13;;;1.63;;
46643;SDS011;32371;51.032;5.816;2022-07-30T10:20:21;2.05;;;1.58;;
46643;SDS011;32371;51.032;5.816;2022-07-30T10:22:47;2.75;;;1.88;;
46643;SDS011;32371;51.032;5.816;2022-07-30T10:25:13;2.83;;;1.70;;
46643;SDS011;32371;51.032;5.816;2022-07-30T10:27:41;2.72;;;2.10;;
46643;SDS011;32371;51.032;5.816;2022-07-30T10:30:07;3.45;;;1.70;;
46643;SDS011;32371;51.032;5.816;2022-07-30T10:32:33;4.15;;;2.00;;
46643;SDS011;32371;51.032;5.816;2022-07-30T10:34:58;3.60;;;1.20;;
46643;SDS011;32371;51.032;5.816;2022-07-30T10:37:24;1.70;;;1.60;;
46643;SDS011;32371;51.032;5.816;2022-07-30T10:39:52;1.88;;;1.73;;
46643;SDS011;32371;51.032;5.816;2022-07-30T10:47:16;2.20;;;2.00;;
46643;SDS011;32371;51.032;5.816;2022-07-30T10:52:44;5.45;;;1.63;;
46643;SDS011;32371;51.032;5.816;2022-07-30T10:55:18;1.35;;;1.13;;
46643;SDS011;32371;51.032;5.816;2022-07-30T11:00:22;3.25;;;1.20;;
46643;SDS011;32371;51.032;5.816;2022-07-30T11:06:35;7.28;;;1.70;;
46643;SDS011;32371;51.032;5.816;2022-07-30T11:08:42;1.20;;;1.05;;
46643;SDS011;32371;51.032;5.816;2022-07-30T11:13:56;3.63;;;1.15;;
46643;SDS011;32371;51.032;5.816;2022-07-30T11:16:23;1.60;;;0.90;;
46643;SDS011;32371;51.032;5.816;2022-07-30T11:19:12;2.25;;;1.00;;
46643;SDS011;32371;51.032;5.816;2022-07-30T11:21:45;2.53;;;1.58;;
46643;SDS011;32371;51.032;5.816;2022-07-30T11:30:01;1.08;;;0.65;;
46643;SDS011;32371;51.032;5.816;2022-07-30T11:32:31;1.88;;;0.70;;
46643;SDS011;32371;51.032;5.816;2022-07-30T11:45:48;4.07;;;0.88;;
46643;SDS011;32371;51.032;5.816;2022-07-30T11:48:15;1.25;;;1.10;;
46643;SDS011;32371;51.032;5.816;2022-07-30T11:50:42;2.17;;;0.85;;
46643;SDS011;32371;51.032;5.816;2022-07-30T11:53:12;1.95;;;0.80;;
46643;SDS011;32371;51.032;5.816;2022-07-30T11:55:42;0.98;;;0.90;;
46643;SDS011;32371;51.032;5.816;2022-07-30T11:58:10;4.65;;;0.82;;
46643;SDS011;32371;51.032;5.816;2022-07-30T12:00:50;3.13;;;0.97;;
46643;SDS011;32371;51.032;5.816;2022-07-30T12:03:17;2.13;;;1.15;;
46643;SDS011;32371;51.032;5.816;2022-07-30T12:05:44;2.40;;;1.25;;
46643;SDS011;32371;51.032;5.816;2022-07-30T12:08:10;2.33;;;0.95;;
46643;SDS011;32371;51.032;5.816;2022-07-30T12:10:36;2.17;;;1.25;;
46643;SDS011;32371;51.032;5.816;2022-07-30T12:15:38;1.83;;;0.98;;
46643;SDS011;32371;51.032;5.816;2022-07-30T12:18:07;1.85;;;1.00;;
46643;SDS011;32371;51.032;5.816;2022-07-30T12:20:36;3.35;;;1.55;;
46643;SDS011;32371;51.032;5.816;2022-07-30T12:23:02;2.15;;;1.10;;
46643;SDS011;32371;51.032;5.816;2022-07-30T12:25:36;2.60;;;1.10;;
46643;SDS011;32371;51.032;5.816;2022-07-30T12:28:03;3.70;;;1.25;;
46643;SDS011;32371;51.032;5.816;2022-07-30T12:30:28;1.92;;;1.20;;
46643;SDS011;32371;51.032;5.816;2022-07-30T12:32:54;1.58;;;1.10;;
46643;SDS011;32371;51.032;5.816;2022-07-30T12:35:19;4.00;;;1.25;;
46643;SDS011;32371;51.032;5.816;2022-07-30T12:38:00;3.95;;;1.48;;
46643;SDS011;32371;51.032;5.816;2022-07-30T12:40:27;2.63;;;1.30;;
46643;SDS011;32371;51.032;5.816;2022-07-30T12:42:52;1.75;;;1.30;;
46643;SDS011;32371;51.032;5.816;2022-07-30T12:48:10;1.48;;;1.13;;
46643;SDS011;32371;51.032;5.816;2022-07-30T12:50:35;2.63;;;1.33;;
46643;SDS011;32371;51.032;5.816;2022-07-30T12:53:00;3.70;;;1.15;;
46643;SDS011;32371;51.032;5.816;2022-07-30T12:55:33;2.97;;;1.05;;
46643;SDS011;32371;51.032;5.816;2022-07-30T12:58:00;3.80;;;1.35;;
46643;SDS011;32371;51.032;5.816;2022-07-30T13:00:28;2.60;;;1.13;;
46643;SDS011;32371;51.032;5.816;2022-07-30T13:02:55;3.22;;;0.90;;
46643;SDS011;32371;51.032;5.816;2022-07-30T13:05:40;2.63;;;1.20;;
46643;SDS011;32371;51.032;5.816;2022-07-30T13:08:06;1.42;;;1.23;;
46643;SDS011;32371;51.032;5.816;2022-07-30T13:10:32;3.80;;;1.25;;
46643;SDS011;32371;51.032;5.816;2022-07-30T13:12:57;4.43;;;1.27;;
46643;SDS011;32371;51.032;5.816;2022-07-30T13:15:23;11.65;;;2.05;;
46643;SDS011;32371;51.032;5.816;2022-07-30T13:17:49;1.83;;;1.15;;
46643;SDS011;32371;51.032;5.816;2022-07-30T13:20:15;2.35;;;1.70;;
46643;SDS011;32371;51.032;5.816;2022-07-30T13:22:41;5.05;;;1.38;;
46643;SDS011;32371;51.032;5.816;2022-07-30T13:25:07;2.40;;;1.10;;
46643;SDS011;32371;51.032;5.816;2022-07-30T13:27:33;4.60;;;1.25;;
46643;SDS011;32371;51.032;5.816;2022-07-30T13:29:59;2.13;;;1.92;;
46643;SDS011;32371;51.032;5.816;2022-07-30T13:32:25;1.52;;;1.00;;
46643;SDS011;32371;51.032;5.816;2022-07-30T13:34:50;2.50;;;1.00;;
46643;SDS011;32371;51.032;5.816;2022-07-30T13:37:15;4.43;;;1.27;;
46643;SDS011;32371;51.032;5.816;2022-07-30T13:39:41;3.10;;;1.10;;
46643;SDS011;32371;51.032;5.816;2022-07-30T13:42:06;2.80;;;1.00;;
46643;SDS011;32371;51.032;5.816;2022-07-30T13:44:31;5.00;;;1.00;;
46643;SDS011;32371;51.032;5.816;2022-07-30T13:46:57;4.13;;;1.40;;
46643;SDS011;32371;51.032;5.816;2022-07-30T13:49:22;2.75;;;1.23;;
46643;SDS011;32371;51.032;5.816;2022-07-30T13:51:48;3.30;;;1.13;;
46643;SDS011;32371;51.032;5.816;2022-07-30T13:54:13;2.90;;;1.00;;
46643;SDS011;32371;51.032;5.816;2022-07-30T13:56:38;3.47;;;0.90;;
46643;SDS011;32371;51.032;5.816;2022-07-30T13:59:04;2.97;;;0.98;;
46643;SDS011;32371;51.032;5.816;2022-07-30T14:01:30;1.65;;;1.20;;
46643;SDS011;32371;51.032;5.816;2022-07-30T14:03:55;2.35;;;0.90;;
46643;SDS011;32371;51.032;5.816;2022-07-30T14:06:21;4.72;;;1.17;;
46643;SDS011;32371;51.032;5.816;2022-07-30T14:08:46;2.70;;;0.95;;
46643;SDS011;32371;51.032;5.816;2022-07-30T14:11:12;4.10;;;1.10;;
46643;SDS011;32371;51.032;5.816;2022-07-30T14:13:38;4.75;;;1.42;;
46643;SDS011;32371;51.032;5.816;2022-07-30T14:16:03;3.15;;;0.90;;
46643;SDS011;32371;51.032;5.816;2022-07-30T14:18:30;6.28;;;1.50;;
46643;SDS011;32371;51.032;5.816;2022-07-30T14:20:56;3.92;;;1.15;;
46643;SDS011;32371;51.032;5.816;2022-07-30T14:23:21;5.72;;;1.15;;
46643;SDS011;32371;51.032;5.816;2022-07-30T14:25:46;2.80;;;1.33;;
46643;SDS011;32371;51.032;5.816;2022-07-30T14:28:12;3.25;;;1.80;;
46643;SDS011;32371;51.032;5.816;2022-07-30T14:30:38;3.25;;;1.10;;
46643;SDS011;32371;51.032;5.816;2022-07-30T14:33:03;1.17;;;0.90;;
46643;SDS011;32371;51.032;5.816;2022-07-30T14:35:29;2.42;;;1.60;;
46643;SDS011;32371;51.032;5.816;2022-07-30T14:37:54;3.30;;;1.08;;
46643;SDS011;32371;51.032;5.816;2022-07-30T14:40:20;4.00;;;1.38;;
46643;SDS011;32371;51.032;5.816;2022-07-30T14:42:45;3.45;;;1.10;;
46643;SDS011;32371;51.032;5.816;2022-07-30T14:45:12;6.55;;;1.30;;
46643;SDS011;32371;51.032;5.816;2022-07-30T14:47:37;5.88;;;1.60;;
46643;SDS011;32371;51.032;5.816;2022-07-30T14:50:04;3.08;;;0.95;;
46643;SDS011;32371;51.032;5.816;2022-07-30T14:52:30;1.92;;;1.20;;
46643;SDS011;32371;51.032;5.816;2022-07-30T14:54:58;5.38;;;1.42;;
46643;SDS011;32371;51.032;5.816;2022-07-30T14:57:24;2.63;;;1.50;;
46643;SDS011;32371;51.032;5.816;2022-07-30T14:59:50;2.22;;;1.15;;
46643;SDS011;32371;51.032;5.816;2022-07-30T15:02:15;1.00;;;0.90;;
46643;SDS011;32371;51.032;5.816;2022-07-30T15:04:41;3.95;;;1.17;;
46643;SDS011;32371;51.032;5.816;2022-07-30T15:07:06;1.55;;;1.08;;
46643;SDS011;32371;51.032;5.816;2022-07-30T15:09:32;3.53;;;1.00;;
46643;SDS011;32371;51.032;5.816;2022-07-30T15:11:58;2.35;;;1.17;;
46643;SDS011;32371;51.032;5.816;2022-07-30T15:14:24;1.38;;;1.02;;
46643;SDS011;32371;51.032;5.816;2022-07-30T15:16:51;2.15;;;1.05;;
46643;SDS011;32371;51.032;5.816;2022-07-30T15:19:16;1.25;;;0.65;;
46643;SDS011;32371;51.032;5.816;2022-07-30T15:21:42;5.28;;;1.27;;
46643;SDS011;32371;51.032;5.816;2022-07-30T15:24:08;3.63;;;0.68;;
46643;SDS011;32371;51.032;5.816;2022-07-30T15:26:34;4.15;;;0.93;;
46643;SDS011;32371;51.032;5.816;2022-07-30T15:28:59;3.75;;;1.00;;
46643;SDS011;32371;51.032;5.816;2022-07-30T15:31:25;2.28;;;0.90;;
46643;SDS011;32371;51.032;5.816;2022-07-30T15:33:50;1.70;;;0.90;;
46643;SDS011;32371;51.032;5.816;2022-07-30T15:36:16;2.25;;;0.70;;